createdAt,value
2023-04-30T00:00:33.797Z,12.02
2023-04-30T00:03:01.832Z,13.05
2023-04-30T00:05:29.827Z,12.65
2023-04-30T00:07:57.649Z,13.88
2023-04-30T00:10:25.493Z,13.27
2023-04-30T00:12:53.444Z,14.68
2023-04-30T00:15:21.295Z,13.45
2023-04-30T00:17:49.232Z,13.57
2023-04-30T00:20:17.414Z,13.65
2023-04-30T00:22:45.343Z,13.20
2023-04-30T00:25:13.208Z,13.02
2023-04-30T00:27:41.235Z,13.25
2023-04-30T00:30:09.558Z,13.38
2023-04-30T00:32:37.450Z,13.05
2023-04-30T00:35:05.844Z,13.68
2023-04-30T00:37:33.985Z,12.73
2023-04-30T00:40:01.776Z,13.50
2023-04-30T00:42:30.912Z,12.65
2023-04-30T00:44:58.819Z,12.77
2023-04-30T00:47:26.863Z,13.23
2023-04-30T00:49:55.086Z,13.30
2023-04-30T00:52:23.399Z,14.38
2023-04-30T00:54:53.818Z,12.80
2023-04-30T00:57:22.970Z,12.98
2023-04-30T00:59:51.739Z,13.20
2023-04-30T01:02:20.411Z,12.55
2023-04-30T01:04:48.750Z,13.18
2023-04-30T01:07:16.813Z,12.82
2023-04-30T01:09:44.840Z,13.80
2023-04-30T01:12:26.665Z,12.73
2023-04-30T01:15:08.979Z,12.85
2023-04-30T01:17:59.443Z,13.02
2023-04-30T01:20:30.007Z,13.88
2023-04-30T01:23:13.729Z,13.40
2023-04-30T01:26:00.690Z,13.40
2023-04-30T01:28:29.018Z,13.57
2023-04-30T01:30:58.915Z,14.88
2023-04-30T01:33:27.311Z,13.10
2023-04-30T01:36:02.196Z,14.43
2023-04-30T01:38:42.283Z,14.80
2023-04-30T01:41:38.021Z,14.45
2023-04-30T01:44:17.274Z,13.45
2023-04-30T01:47:09.760Z,15.02
2023-04-30T01:50:03.911Z,14.05
2023-04-30T01:52:38.471Z,15.18
2023-04-30T01:55:12.597Z,14.80
2023-04-30T02:00:18.190Z,14.40
2023-04-30T02:02:46.206Z,14.57
2023-04-30T02:05:14.215Z,13.88
2023-04-30T02:07:47.007Z,14.63
2023-04-30T02:10:15.243Z,14.30
2023-04-30T02:12:43.248Z,13.95
2023-04-30T02:15:11.492Z,14.90
2023-04-30T02:17:41.988Z,15.18
2023-04-30T02:20:10.307Z,13.65
2023-04-30T02:22:38.327Z,14.57
2023-04-30T02:25:06.692Z,14.68
2023-04-30T02:27:35.141Z,13.77
2023-04-30T02:30:03.342Z,14.55
2023-04-30T02:32:31.683Z,14.82
2023-04-30T02:34:59.747Z,14.90
2023-04-30T02:37:27.650Z,14.02
2023-04-30T02:39:55.848Z,12.90
2023-04-30T02:42:23.913Z,14.95
2023-04-30T02:44:51.893Z,14.45
2023-04-30T02:47:19.849Z,13.05
2023-04-30T02:49:47.730Z,12.82
2023-04-30T02:52:15.575Z,14.13
2023-04-30T02:54:43.526Z,14.15
2023-04-30T02:57:12.010Z,13.85
2023-04-30T02:59:40.558Z,14.20
2023-04-30T03:02:08.549Z,14.38
2023-04-30T03:04:36.437Z,13.15
2023-04-30T03:07:07.025Z,14.43
2023-04-30T03:09:36.789Z,13.55
2023-04-30T03:12:04.903Z,14.25
2023-04-30T03:14:32.780Z,15.57
2023-04-30T03:17:00.587Z,15.30
2023-04-30T03:19:29.330Z,15.23
2023-04-30T03:21:57.280Z,14.20
2023-04-30T03:24:25.608Z,15.10
2023-04-30T03:26:53.504Z,15.02
2023-04-30T03:29:21.324Z,15.35
2023-04-30T03:31:49.268Z,15.85
2023-04-30T03:34:17.154Z,15.35
2023-04-30T03:36:45.056Z,14.13
2023-04-30T03:39:13.028Z,16.38
2023-04-30T03:41:40.892Z,15.88
2023-04-30T03:44:16.006Z,16.15
2023-04-30T03:49:12.193Z,16.30
2023-04-30T03:51:42.182Z,15.43
2023-04-30T03:54:10.483Z,15.75
2023-04-30T03:56:38.910Z,15.88
2023-04-30T03:59:06.956Z,15.55
2023-04-30T04:01:34.989Z,14.48
2023-04-30T04:04:03.534Z,14.63
2023-04-30T04:06:33.115Z,15.43
2023-04-30T04:09:01.098Z,14.15
2023-04-30T04:11:29.069Z,15.60
2023-04-30T04:13:57.950Z,14.07
2023-04-30T04:16:26.269Z,14.07
2023-04-30T04:18:55.029Z,14.93
2023-04-30T04:21:22.936Z,14.50
2023-04-30T04:23:50.932Z,15.63
2023-04-30T04:26:21.710Z,14.90
2023-04-30T04:28:49.636Z,14.73
2023-04-30T04:31:18.437Z,13.68
2023-04-30T04:33:47.008Z,15.07
2023-04-30T04:36:14.867Z,15.90
2023-04-30T04:38:43.176Z,15.95
2023-04-30T04:41:11.056Z,16.38
2023-04-30T04:43:38.969Z,15.90
2023-04-30T04:46:10.627Z,16.90
2023-04-30T04:48:39.669Z,16.45
2023-04-30T04:51:07.626Z,14.80
2023-04-30T04:53:35.546Z,15.50
2023-04-30T04:56:03.613Z,15.30
2023-04-30T04:58:31.847Z,14.68
2023-04-30T05:01:00.400Z,14.52
2023-04-30T05:03:29.542Z,15.07
2023-04-30T05:05:57.605Z,14.13
2023-04-30T05:08:25.786Z,13.68
2023-04-30T05:10:53.638Z,14.23
2023-04-30T05:13:21.665Z,14.10
2023-04-30T05:15:52.319Z,14.73
2023-04-30T05:18:20.747Z,14.80
2023-04-30T05:20:49.022Z,13.55
2023-04-30T05:23:16.964Z,13.40
2023-04-30T05:25:45.690Z,13.73
2023-04-30T05:28:13.586Z,13.55
2023-04-30T05:30:41.388Z,14.32
2023-04-30T05:33:09.337Z,14.45
2023-04-30T05:35:37.370Z,13.95
2023-04-30T05:38:05.359Z,15.25
2023-04-30T05:40:33.270Z,13.50
2023-04-30T05:43:01.182Z,13.95
2023-04-30T05:45:29.118Z,15.07
2023-04-30T05:47:57.123Z,14.05
2023-04-30T05:50:25.054Z,13.80
2023-04-30T05:52:53.003Z,14.23
2023-04-30T05:55:20.893Z,14.82
2023-04-30T05:57:48.809Z,14.57
2023-04-30T06:00:16.793Z,15.57
2023-04-30T06:02:44.848Z,15.48
2023-04-30T06:05:15.971Z,15.23
2023-04-30T06:07:45.111Z,14.20
2023-04-30T06:10:13.152Z,14.57
2023-04-30T06:12:41.413Z,14.70
2023-04-30T06:15:09.545Z,13.93
2023-04-30T06:17:37.726Z,14.90
2023-04-30T06:20:07.124Z,15.32
2023-04-30T06:22:35.193Z,14.50
2023-04-30T06:25:03.753Z,13.23
2023-04-30T06:27:33.188Z,14.52
2023-04-30T06:30:02.251Z,13.98
2023-04-30T06:32:30.599Z,14.13
2023-04-30T06:34:58.958Z,13.82
2023-04-30T06:37:27.000Z,13.88
2023-04-30T06:39:54.978Z,13.30
2023-04-30T06:42:23.312Z,11.95
2023-04-30T06:44:51.415Z,12.88
2023-04-30T06:47:19.357Z,12.40
2023-04-30T06:49:47.361Z,12.35
2023-04-30T06:52:15.175Z,11.38
2023-04-30T06:54:44.080Z,12.13
2023-04-30T06:57:12.560Z,11.57
2023-04-30T06:59:40.444Z,11.93
2023-04-30T07:02:08.529Z,11.98
2023-04-30T07:04:36.526Z,11.18
2023-04-30T07:07:04.705Z,11.55
2023-04-30T07:09:32.580Z,10.60
2023-04-30T07:12:01.074Z,10.43
2023-04-30T07:14:28.964Z,10.38
2023-04-30T07:16:56.839Z,11.98
2023-04-30T07:19:27.116Z,11.82
2023-04-30T07:21:54.992Z,10.50
2023-04-30T07:24:22.851Z,9.30
2023-04-30T07:26:51.061Z,9.48
2023-04-30T07:29:19.561Z,9.73
2023-04-30T07:31:47.975Z,10.63
2023-04-30T07:34:15.785Z,9.70
2023-04-30T07:36:43.774Z,11.43
2023-04-30T07:39:11.937Z,10.73
2023-04-30T07:41:39.848Z,10.52
2023-04-30T07:44:07.733Z,10.40
2023-04-30T07:46:36.718Z,9.23
2023-04-30T07:49:04.787Z,9.32
2023-04-30T07:51:33.129Z,10.10
2023-04-30T07:54:01.126Z,7.78
2023-04-30T07:56:29.020Z,7.90
2023-04-30T07:58:57.088Z,7.95
2023-04-30T08:01:24.933Z,8.25
2023-04-30T08:03:52.879Z,7.95
2023-04-30T08:06:20.805Z,8.13
2023-04-30T08:08:48.885Z,8.40
2023-04-30T08:11:19.179Z,7.85
2023-04-30T08:13:47.525Z,7.40
2023-04-30T08:16:16.020Z,7.53
2023-04-30T08:18:46.904Z,7.60
2023-04-30T08:21:15.247Z,6.72
2023-04-30T08:23:43.476Z,7.15
2023-04-30T08:26:13.502Z,7.75
2023-04-30T08:28:43.741Z,7.68
2023-04-30T08:31:13.014Z,7.88
2023-04-30T08:33:41.391Z,7.32
2023-04-30T08:36:11.024Z,7.35
2023-04-30T08:38:40.545Z,7.45
2023-04-30T08:41:14.903Z,7.05
2023-04-30T08:43:47.858Z,7.03
2023-04-30T08:46:19.416Z,6.78
2023-04-30T08:48:50.802Z,7.53
2023-04-30T08:51:18.984Z,6.53
2023-04-30T08:53:48.330Z,7.60
2023-04-30T08:56:16.262Z,7.60
2023-04-30T08:58:44.569Z,7.00
2023-04-30T09:01:12.448Z,6.97
2023-04-30T09:03:41.020Z,6.60
2023-04-30T09:06:08.957Z,7.85
2023-04-30T09:08:44.945Z,7.63
2023-04-30T09:11:31.706Z,7.00
2023-04-30T09:14:01.488Z,6.50
2023-04-30T09:16:45.786Z,4.72
2023-04-30T09:19:27.399Z,4.20
2023-04-30T09:21:55.742Z,3.58
2023-04-30T09:24:24.409Z,3.30
2023-04-30T09:26:52.405Z,3.25
2023-04-30T09:29:23.156Z,3.35
2023-04-30T09:31:51.127Z,2.90
2023-04-30T09:34:19.011Z,2.47
2023-04-30T09:36:56.152Z,1.95
2023-04-30T09:39:24.229Z,1.67
2023-04-30T09:41:54.742Z,1.98
2023-04-30T09:44:29.914Z,1.40
2023-04-30T09:46:59.007Z,1.85
2023-04-30T09:49:27.809Z,1.30
2023-04-30T09:51:59.306Z,1.10
2023-04-30T09:54:32.429Z,1.30
2023-04-30T09:57:02.411Z,1.52
2023-04-30T09:59:39.520Z,1.30
2023-04-30T10:02:08.887Z,1.45
2023-04-30T10:04:38.856Z,1.20
2023-04-30T10:07:16.595Z,1.88
2023-04-30T10:09:51.244Z,1.95
2023-04-30T10:12:26.025Z,1.90
2023-04-30T10:15:11.627Z,1.88
2023-04-30T10:17:41.770Z,1.63
2023-04-30T10:20:12.011Z,1.60
2023-04-30T10:22:41.989Z,1.52
2023-04-30T10:25:13.660Z,1.73
2023-04-30T10:27:41.616Z,1.90
2023-04-30T10:30:10.940Z,1.10
2023-04-30T10:32:47.949Z,1.63
2023-04-30T10:35:16.291Z,1.38
2023-04-30T10:37:49.934Z,1.08
2023-04-30T10:40:19.775Z,1.27
2023-04-30T10:42:50.712Z,1.40
2023-04-30T10:45:20.986Z,1.17
2023-04-30T10:47:49.092Z,1.52
2023-04-30T10:50:17.509Z,1.42
2023-04-30T10:52:45.327Z,1.60
2023-04-30T10:55:18.461Z,1.20
2023-04-30T10:57:48.570Z,1.53
2023-04-30T11:00:20.567Z,1.17
2023-04-30T11:02:49.289Z,1.35
2023-04-30T11:05:18.822Z,1.30
2023-04-30T11:08:11.702Z,1.23
2023-04-30T11:10:59.024Z,0.90
2023-04-30T11:13:27.743Z,1.15
2023-04-30T11:16:03.486Z,0.80
2023-04-30T11:18:31.702Z,1.10
2023-04-30T11:20:59.743Z,1.20
2023-04-30T11:23:38.523Z,1.02
2023-04-30T11:26:10.783Z,0.90
2023-04-30T11:28:38.884Z,1.33
2023-04-30T11:31:06.929Z,0.93
2023-04-30T11:33:36.018Z,0.70
2023-04-30T11:36:04.125Z,1.17
2023-04-30T11:38:36.966Z,1.00
2023-04-30T11:41:05.632Z,0.70
2023-04-30T11:43:34.961Z,1.10
2023-04-30T11:46:09.937Z,0.98
2023-04-30T11:48:42.580Z,1.25
2023-04-30T11:51:27.150Z,0.90
2023-04-30T11:53:55.153Z,0.90
2023-04-30T11:56:24.698Z,1.17
2023-04-30T11:58:55.953Z,0.90
2023-04-30T12:01:27.678Z,1.10
2023-04-30T12:03:58.250Z,1.13
2023-04-30T12:06:28.272Z,1.15
2023-04-30T12:08:58.070Z,1.02
2023-04-30T12:11:28.821Z,1.00
2023-04-30T12:14:17.122Z,0.80
2023-04-30T12:16:49.517Z,0.90
2023-04-30T12:19:19.516Z,0.80
2023-04-30T12:21:49.438Z,0.70
2023-04-30T12:24:19.245Z,1.13
2023-04-30T12:26:48.456Z,0.88
2023-04-30T12:29:18.451Z,0.98
2023-04-30T12:31:51.127Z,0.77
2023-04-30T12:34:19.210Z,0.90
2023-04-30T12:36:47.097Z,1.05
2023-04-30T12:39:16.588Z,1.05
2023-04-30T12:41:49.773Z,0.93
2023-04-30T12:44:18.792Z,0.80
2023-04-30T12:46:49.381Z,0.90
2023-04-30T12:49:33.714Z,0.95
2023-04-30T12:54:37.461Z,0.70
2023-04-30T12:57:07.691Z,0.80
2023-04-30T12:59:40.627Z,0.90
2023-04-30T13:02:14.949Z,1.08
2023-04-30T13:04:44.721Z,1.10
2023-04-30T13:07:12.786Z,0.73
2023-04-30T13:09:40.992Z,0.63
2023-04-30T13:12:08.916Z,1.08
2023-04-30T13:14:36.878Z,0.80
2023-04-30T13:17:07.133Z,0.75
2023-04-30T13:19:35.437Z,1.05
2023-04-30T13:22:03.374Z,0.68
2023-04-30T13:24:31.474Z,0.68
2023-04-30T13:26:59.505Z,0.75
2023-04-30T13:29:27.843Z,0.60
2023-04-30T13:31:55.879Z,0.70
2023-04-30T13:34:23.963Z,0.70
2023-04-30T13:36:53.626Z,0.80
2023-04-30T13:39:22.152Z,0.70
2023-04-30T13:41:50.079Z,0.90
2023-04-30T13:44:17.964Z,0.80
2023-04-30T13:46:46.068Z,0.85
2023-04-30T13:49:14.128Z,0.55
2023-04-30T13:51:42.060Z,0.90
2023-04-30T13:54:10.016Z,0.70
2023-04-30T13:56:38.551Z,0.65
2023-04-30T13:59:06.484Z,0.77
2023-04-30T14:01:34.592Z,0.80
2023-04-30T14:04:03.208Z,0.73
2023-04-30T14:06:32.326Z,0.88
2023-04-30T14:09:00.300Z,0.70
2023-04-30T14:11:28.445Z,0.80
2023-04-30T14:13:56.372Z,0.70
2023-04-30T14:16:25.461Z,1.02
2023-04-30T14:18:53.449Z,0.90
2023-04-30T14:21:21.469Z,1.00
2023-04-30T14:23:49.373Z,1.05
2023-04-30T14:26:17.263Z,0.70
2023-04-30T14:28:45.338Z,0.90
2023-04-30T14:31:13.793Z,0.88
2023-04-30T14:33:42.464Z,1.10
2023-04-30T14:36:13.312Z,1.05
2023-04-30T14:38:41.539Z,0.95
2023-04-30T14:41:09.728Z,0.70
2023-04-30T14:43:37.707Z,0.80
2023-04-30T14:46:07.547Z,1.00
2023-04-30T14:48:36.157Z,0.80
2023-04-30T14:51:05.257Z,1.20
2023-04-30T14:53:33.486Z,0.80
2023-04-30T14:56:01.717Z,1.10
2023-04-30T14:58:29.991Z,0.93
2023-04-30T15:00:58.144Z,1.00
2023-04-30T15:03:27.771Z,1.17
2023-04-30T15:05:56.252Z,1.10
2023-04-30T15:08:24.463Z,1.30
2023-04-30T15:10:53.231Z,1.10
2023-04-30T15:13:22.270Z,1.15
2023-04-30T15:15:50.843Z,1.00
2023-04-30T15:18:18.770Z,1.13
2023-04-30T15:20:47.412Z,1.20
2023-04-30T15:23:15.763Z,1.13
2023-04-30T15:25:44.622Z,1.15
2023-04-30T15:28:14.668Z,1.10
2023-04-30T15:30:42.737Z,1.10
2023-04-30T15:33:10.878Z,1.05
2023-04-30T15:35:47.064Z,1.10
2023-04-30T15:38:17.382Z,1.50
2023-04-30T15:40:45.348Z,1.20
2023-04-30T15:43:14.093Z,1.23
2023-04-30T15:45:43.451Z,1.40
2023-04-30T15:48:15.044Z,1.35
2023-04-30T15:50:43.081Z,1.33
2023-04-30T15:53:10.941Z,1.52
2023-04-30T15:55:39.019Z,1.23
2023-04-30T15:58:07.049Z,1.30
2023-04-30T16:00:34.937Z,1.45
2023-04-30T16:03:03.000Z,1.02
2023-04-30T16:05:31.712Z,1.10
2023-04-30T16:07:59.948Z,1.23
2023-04-30T16:10:27.839Z,1.20
2023-04-30T16:12:55.846Z,1.52
2023-04-30T16:15:24.623Z,1.67
2023-04-30T16:17:52.906Z,1.73
2023-04-30T16:20:21.567Z,1.40
2023-04-30T16:22:52.871Z,1.70
2023-04-30T16:25:20.929Z,1.85
2023-04-30T16:27:49.886Z,1.40
2023-04-30T16:30:17.921Z,1.80
2023-04-30T16:32:45.939Z,2.00
2023-04-30T16:35:14.028Z,1.67
2023-04-30T16:37:41.951Z,2.05
2023-04-30T16:40:11.159Z,1.73
2023-04-30T16:42:39.070Z,1.90
2023-04-30T16:45:07.554Z,1.95
2023-04-30T16:47:35.581Z,1.60
2023-04-30T16:50:04.143Z,2.35
2023-04-30T16:52:33.414Z,1.83
2023-04-30T16:55:01.360Z,1.92
2023-04-30T16:57:29.249Z,1.70
2023-04-30T16:59:57.441Z,2.15
2023-04-30T17:02:25.799Z,2.10
2023-04-30T17:04:54.210Z,2.13
2023-04-30T17:07:22.048Z,1.80
2023-04-30T17:09:50.729Z,2.13
2023-04-30T17:12:18.668Z,1.58
2023-04-30T17:14:47.724Z,1.80
2023-04-30T17:17:15.640Z,1.63
2023-04-30T17:19:43.568Z,1.80
2023-04-30T17:22:13.297Z,1.70
2023-04-30T17:24:41.232Z,2.08
2023-04-30T17:27:09.636Z,1.63
2023-04-30T17:29:37.768Z,1.45
2023-04-30T17:32:05.903Z,1.60
2023-04-30T17:34:33.757Z,1.33
2023-04-30T17:37:01.608Z,1.52
2023-04-30T17:39:32.630Z,1.80
2023-04-30T17:42:01.059Z,1.92
2023-04-30T17:44:31.531Z,1.70
2023-04-30T17:46:59.524Z,1.70
2023-04-30T17:49:28.614Z,1.85
2023-04-30T17:51:59.226Z,1.52
2023-04-30T17:54:29.148Z,1.35
2023-04-30T17:56:59.266Z,1.48
2023-04-30T17:59:30.093Z,1.40
2023-04-30T18:01:59.224Z,1.80
2023-04-30T18:04:27.119Z,1.58
2023-04-30T18:06:55.069Z,1.63
2023-04-30T18:09:23.146Z,1.75
2023-04-30T18:11:51.741Z,1.58
2023-04-30T18:14:19.644Z,1.42
2023-04-30T18:16:48.856Z,1.40
2023-04-30T18:19:18.233Z,1.20
2023-04-30T18:21:46.191Z,1.13
2023-04-30T18:24:14.126Z,1.52
2023-04-30T18:26:41.991Z,1.73
2023-04-30T18:29:10.363Z,1.45
2023-04-30T18:31:38.516Z,1.65
2023-04-30T18:34:07.085Z,1.80
2023-04-30T18:36:36.280Z,1.95
2023-04-30T18:39:05.713Z,2.08
2023-04-30T18:41:33.535Z,2.10
2023-04-30T18:44:04.137Z,1.70
2023-04-30T18:46:32.136Z,2.00
2023-04-30T18:49:00.034Z,1.95
2023-04-30T18:51:28.004Z,1.88
2023-04-30T18:53:57.477Z,2.10
2023-04-30T18:56:25.606Z,1.35
2023-04-30T18:58:53.527Z,2.20
2023-04-30T19:01:23.123Z,1.70
2023-04-30T19:03:51.232Z,2.10
2023-04-30T19:06:19.218Z,1.85
2023-04-30T19:08:47.134Z,1.88
2023-04-30T19:11:15.408Z,1.40
2023-04-30T19:13:43.226Z,2.10
2023-04-30T19:16:11.120Z,1.98
2023-04-30T19:18:39.762Z,2.50
2023-04-30T19:21:08.993Z,3.60
2023-04-30T19:23:36.918Z,3.28
2023-04-30T19:26:04.889Z,3.72
2023-04-30T19:28:32.773Z,3.20
2023-04-30T19:31:00.904Z,3.55
2023-04-30T19:33:28.968Z,3.25
2023-04-30T19:35:57.988Z,3.45
2023-04-30T19:38:32.267Z,2.70
2023-04-30T19:41:01.898Z,2.63
2023-04-30T19:43:32.730Z,2.22
2023-04-30T19:46:02.567Z,1.95
2023-04-30T19:48:31.696Z,2.10
2023-04-30T19:51:05.367Z,1.25
2023-04-30T19:53:35.163Z,1.67
2023-04-30T19:56:03.356Z,1.77
2023-04-30T19:58:32.003Z,1.67
2023-04-30T20:01:00.462Z,1.48
2023-04-30T20:03:29.102Z,1.83
2023-04-30T20:05:58.472Z,1.70
2023-04-30T20:08:26.705Z,2.15
2023-04-30T20:10:55.118Z,2.10
2023-04-30T20:13:25.735Z,2.13
2023-04-30T20:15:54.856Z,2.30
2023-04-30T20:18:22.777Z,2.10
2023-04-30T20:20:50.866Z,2.20
2023-04-30T20:23:19.410Z,2.17
2023-04-30T20:25:48.029Z,2.45
2023-04-30T20:28:19.271Z,2.33
2023-04-30T20:30:50.532Z,2.20
2023-04-30T20:33:20.951Z,2.38
2023-04-30T20:35:49.748Z,2.47
2023-04-30T20:38:19.979Z,2.22
2023-04-30T20:40:48.799Z,2.40
2023-04-30T20:43:17.282Z,2.58
2023-04-30T20:45:45.546Z,2.35
2023-04-30T20:48:13.727Z,2.42
2023-04-30T20:50:42.216Z,2.50
2023-04-30T20:53:11.309Z,2.40
2023-04-30T20:55:39.439Z,2.28
2023-04-30T20:58:09.209Z,2.40
2023-04-30T21:00:37.171Z,2.30
2023-04-30T21:03:05.770Z,2.70
2023-04-30T21:05:34.446Z,2.88
2023-04-30T21:08:02.487Z,2.40
2023-04-30T21:10:36.548Z,2.58
2023-04-30T21:13:06.113Z,2.58
2023-04-30T21:15:35.936Z,2.55
2023-04-30T21:18:04.137Z,2.85
2023-04-30T21:20:32.465Z,3.28
2023-04-30T21:23:02.562Z,3.00
2023-04-30T21:25:30.732Z,2.67
2023-04-30T21:27:58.863Z,3.25
2023-04-30T21:30:26.953Z,2.58
2023-04-30T21:33:04.877Z,3.15
2023-04-30T21:35:33.222Z,2.85
2023-04-30T21:38:01.118Z,3.00
2023-04-30T21:40:32.421Z,2.47
2023-04-30T21:43:01.787Z,2.83
2023-04-30T21:45:32.039Z,2.78
2023-04-30T21:48:00.383Z,3.13
2023-04-30T21:50:28.398Z,2.65
2023-04-30T21:52:56.234Z,3.00
2023-04-30T21:55:24.252Z,2.95
2023-04-30T21:57:52.111Z,3.05
2023-04-30T22:00:21.252Z,3.13
2023-04-30T22:02:50.818Z,3.10
2023-04-30T22:05:19.848Z,3.58
2023-04-30T22:07:48.271Z,3.10
2023-04-30T22:10:16.408Z,3.28
2023-04-30T22:12:47.692Z,3.25
2023-04-30T22:15:16.156Z,3.10
2023-04-30T22:17:44.409Z,2.95
2023-04-30T22:20:12.874Z,2.67
2023-04-30T22:22:41.980Z,2.60
2023-04-30T22:25:10.610Z,2.67
2023-04-30T22:27:38.594Z,2.47
2023-04-30T22:30:07.320Z,2.53
2023-04-30T22:32:35.514Z,2.40
2023-04-30T22:35:03.664Z,2.47
2023-04-30T22:37:31.587Z,2.40
2023-04-30T22:39:59.573Z,2.42
2023-04-30T22:42:28.851Z,2.55
2023-04-30T22:44:57.573Z,2.22
2023-04-30T22:47:27.508Z,2.50
2023-04-30T22:49:56.837Z,2.45
2023-04-30T22:52:26.193Z,2.78
2023-04-30T22:54:54.029Z,2.72
2023-04-30T22:57:25.713Z,3.05
2023-04-30T22:59:54.305Z,2.60
2023-04-30T23:02:23.208Z,2.90
2023-04-30T23:04:51.772Z,2.90
2023-04-30T23:07:19.663Z,3.10
2023-04-30T23:09:47.529Z,3.20
2023-04-30T23:12:16.302Z,3.60
2023-04-30T23:14:44.342Z,3.28
2023-04-30T23:17:12.172Z,2.85
2023-04-30T23:19:40.128Z,3.28
2023-04-30T23:22:07.936Z,3.60
2023-04-30T23:24:36.172Z,4.22
2023-04-30T23:27:04.635Z,4.30
2023-04-30T23:29:33.764Z,3.40
2023-04-30T23:32:02.967Z,4.00
2023-04-30T23:34:30.827Z,3.97
2023-04-30T23:36:58.582Z,4.47
2023-04-30T23:39:26.593Z,4.63
2023-04-30T23:41:54.399Z,4.70
2023-04-30T23:44:22.548Z,4.20
2023-04-30T23:46:51.271Z,4.10
2023-04-30T23:49:19.362Z,3.88
2023-04-30T23:51:47.159Z,3.88
2023-04-30T23:54:15.108Z,3.53
2023-04-30T23:56:42.961Z,4.20
2023-04-30T23:59:10.771Z,3.75
